createdAt,value
2023-03-26T00:02:21.539Z,24.30
2023-03-26T00:04:55.339Z,28.40
2023-03-26T00:07:23.589Z,25.50
2023-03-26T00:09:55.654Z,25.80
2023-03-26T00:12:25.942Z,27.50
2023-03-26T00:14:57.741Z,29.30
2023-03-26T00:17:26.256Z,24.50
2023-03-26T00:20:04.431Z,27.10
2023-03-26T00:22:35.660Z,25.00
2023-03-26T00:25:12.554Z,28.40
2023-03-26T00:27:45.745Z,29.10
2023-03-26T00:30:15.673Z,30.10
2023-03-26T00:32:53.714Z,30.20
2023-03-26T00:35:22.571Z,31.50
2023-03-26T00:37:53.315Z,29.00
2023-03-26T00:40:23.110Z,31.80
2023-03-26T00:42:53.434Z,29.20
2023-03-26T00:45:26.635Z,29.60
2023-03-26T00:47:56.372Z,29.80
2023-03-26T00:50:25.026Z,29.90
2023-03-26T00:53:02.417Z,33.80
2023-03-26T00:55:38.987Z,33.10
2023-03-26T00:58:14.318Z,31.00
2023-03-26T01:00:53.152Z,29.80
2023-03-26T01:03:38.000Z,28.80
2023-03-26T01:06:17.882Z,30.20
2023-03-26T01:08:50.316Z,27.10
2023-03-26T01:11:33.890Z,28.40
2023-03-26T01:14:02.154Z,26.30
2023-03-26T01:17:08.859Z,32.90
2023-03-26T01:19:52.113Z,28.50
2023-03-26T01:22:26.599Z,28.60
2023-03-26T01:25:00.549Z,31.20
2023-03-26T01:28:06.248Z,27.70
2023-03-26T01:30:44.171Z,26.50
2023-03-26T01:33:26.975Z,24.90
2023-03-26T01:36:12.299Z,29.00
2023-03-26T01:39:05.808Z,27.90
2023-03-26T01:41:49.546Z,23.60
2023-03-26T01:44:35.038Z,20.50
2023-03-26T01:47:07.610Z,17.60
2023-03-26T01:49:46.121Z,11.80
2023-03-26T01:52:24.590Z,9.30
2023-03-26T01:55:02.035Z,8.50
2023-03-26T01:57:39.831Z,7.60
2023-03-26T02:00:26.384Z,4.80
2023-03-26T02:03:00.844Z,4.70
2023-03-26T02:05:46.955Z,4.00
2023-03-26T02:08:37.503Z,3.70
2023-03-26T02:11:13.239Z,2.70
2023-03-26T02:13:49.506Z,3.10
2023-03-26T02:16:25.744Z,2.10
2023-03-26T02:19:00.055Z,2.10
2023-03-26T02:21:34.356Z,1.80
2023-03-26T02:26:43.432Z,2.80
2023-03-26T02:29:16.216Z,1.70
2023-03-26T02:31:49.437Z,2.70
2023-03-26T02:34:20.016Z,3.00
2023-03-26T02:37:01.510Z,1.10
2023-03-26T02:39:32.442Z,2.70
2023-03-26T02:42:16.183Z,2.70
2023-03-26T02:44:50.716Z,1.70
2023-03-26T02:47:25.338Z,1.40
2023-03-26T02:49:58.112Z,1.90
2023-03-26T02:52:50.144Z,1.80
2023-03-26T02:55:21.188Z,2.00
2023-03-26T02:57:54.889Z,2.70
2023-03-26T03:00:37.813Z,2.30
2023-03-26T03:03:26.429Z,2.00
2023-03-26T03:06:10.114Z,1.40
2023-03-26T03:08:55.227Z,1.50
2023-03-26T03:11:41.785Z,3.50
2023-03-26T03:14:14.049Z,1.20
2023-03-26T03:16:48.816Z,1.40
2023-03-26T03:19:21.663Z,1.20
2023-03-26T03:21:57.111Z,2.90
2023-03-26T03:24:27.311Z,2.10
2023-03-26T03:27:02.787Z,2.10
2023-03-26T03:29:48.872Z,2.10
2023-03-26T03:32:46.970Z,2.00
2023-03-26T03:35:21.497Z,2.20
2023-03-26T03:38:06.287Z,2.70
2023-03-26T03:40:42.295Z,3.50
2023-03-26T03:43:17.143Z,3.10
2023-03-26T03:48:46.869Z,3.00
2023-03-26T03:51:27.730Z,2.60
2023-03-26T03:54:15.058Z,3.70
2023-03-26T03:57:03.114Z,2.80
2023-03-26T03:59:52.158Z,2.40
2023-03-26T04:02:32.534Z,3.10
2023-03-26T04:05:10.828Z,4.10
2023-03-26T04:07:45.047Z,3.10
2023-03-26T04:10:41.070Z,2.80
2023-03-26T04:13:14.178Z,3.90
2023-03-26T04:16:07.516Z,3.30
2023-03-26T04:18:42.258Z,5.20
2023-03-26T04:21:16.085Z,2.30
2023-03-26T04:23:45.994Z,3.50
2023-03-26T04:26:58.197Z,3.90
2023-03-26T04:29:45.014Z,5.20
2023-03-26T04:32:30.338Z,4.70
2023-03-26T04:35:08.192Z,2.50
2023-03-26T04:37:46.300Z,3.20
2023-03-26T04:40:20.598Z,2.70
2023-03-26T04:43:02.625Z,2.40
2023-03-26T04:45:51.250Z,5.00
2023-03-26T04:48:30.599Z,4.50
2023-03-26T04:51:04.088Z,4.70
2023-03-26T04:53:39.124Z,2.80
2023-03-26T04:56:30.890Z,4.00
2023-03-26T04:59:32.918Z,3.90
2023-03-26T05:02:05.337Z,3.20
2023-03-26T05:04:45.097Z,2.80
2023-03-26T05:07:17.783Z,2.80
2023-03-26T05:09:55.310Z,4.60
2023-03-26T05:12:24.942Z,4.90
2023-03-26T05:15:03.333Z,6.60
2023-03-26T05:17:42.777Z,3.50
2023-03-26T05:20:38.381Z,6.30
2023-03-26T05:23:20.391Z,4.10
2023-03-26T05:26:01.761Z,5.10
2023-03-26T05:28:37.109Z,5.10
2023-03-26T05:31:25.368Z,8.30
2023-03-26T05:33:58.447Z,64.50
2023-03-26T05:36:41.097Z,97.40
2023-03-26T05:39:27.762Z,47.30
2023-03-26T05:42:06.891Z,23.70
2023-03-26T05:44:48.997Z,12.40
2023-03-26T05:47:26.494Z,19.80
2023-03-26T05:49:54.865Z,28.70
2023-03-26T05:52:26.768Z,47.20
2023-03-26T05:55:18.865Z,32.00
2023-03-26T05:58:16.603Z,101.80
2023-03-26T06:01:08.719Z,33.90
2023-03-26T06:04:00.830Z,27.20
2023-03-26T06:06:38.395Z,15.70
2023-03-26T06:09:09.952Z,16.60
2023-03-26T06:11:48.772Z,15.10
2023-03-26T06:14:25.554Z,12.50
2023-03-26T06:17:14.159Z,11.10
2023-03-26T06:20:09.159Z,13.50
2023-03-26T06:22:45.365Z,12.90
2023-03-26T06:25:24.196Z,9.20
2023-03-26T06:28:21.147Z,6.60
2023-03-26T06:31:19.521Z,11.10
2023-03-26T06:34:12.286Z,5.40
2023-03-26T06:36:45.271Z,5.90
2023-03-26T06:39:13.953Z,6.10
2023-03-26T06:41:53.389Z,6.40
2023-03-26T06:45:02.321Z,4.90
2023-03-26T06:47:45.474Z,4.00
2023-03-26T06:50:51.219Z,9.10
2023-03-26T06:53:44.587Z,7.50
2023-03-26T06:56:38.890Z,5.70
2023-03-26T06:59:32.460Z,2.90
2023-03-26T07:02:39.655Z,2.60
2023-03-26T07:05:30.110Z,3.30
2023-03-26T07:08:17.844Z,2.60
2023-03-26T07:11:08.444Z,2.50
2023-03-26T07:14:14.922Z,3.10
2023-03-26T07:20:09.482Z,4.90
2023-03-26T07:22:42.125Z,3.70
2023-03-26T07:25:23.717Z,4.10
2023-03-26T07:29:04.056Z,2.90
2023-03-26T07:32:22.019Z,5.50
2023-03-26T07:35:22.483Z,5.30
2023-03-26T07:38:43.869Z,3.60
2023-03-26T07:41:56.176Z,4.10
2023-03-26T07:45:14.933Z,3.90
2023-03-26T07:48:22.427Z,4.00
2023-03-26T07:51:20.810Z,4.20
2023-03-26T07:54:12.568Z,5.20
2023-03-26T07:57:12.429Z,4.30
2023-03-26T08:00:22.263Z,3.20
2023-03-26T08:03:23.627Z,2.80
2023-03-26T08:06:14.805Z,4.20
2023-03-26T08:09:22.178Z,4.50
2023-03-26T08:12:26.538Z,3.70
2023-03-26T08:15:02.655Z,3.90
2023-03-26T08:17:55.937Z,5.00
2023-03-26T08:20:34.242Z,4.70
2023-03-26T08:23:37.566Z,4.90
2023-03-26T08:26:38.669Z,6.20
2023-03-26T08:29:34.800Z,4.00
2023-03-26T08:32:12.132Z,3.70
2023-03-26T08:34:43.636Z,4.20
2023-03-26T08:37:14.685Z,4.40
2023-03-26T08:39:43.370Z,8.70
2023-03-26T08:42:36.651Z,11.80
2023-03-26T08:45:29.792Z,6.20
2023-03-26T08:48:32.678Z,8.20
2023-03-26T08:51:12.184Z,6.90
2023-03-26T08:54:06.725Z,7.40
2023-03-26T08:57:03.637Z,10.20
2023-03-26T09:00:17.101Z,10.20
2023-03-26T09:03:12.403Z,12.20
2023-03-26T09:06:12.938Z,22.30
2023-03-26T09:08:54.935Z,11.40
2023-03-26T09:11:55.777Z,12.90
2023-03-26T09:14:40.648Z,13.70
2023-03-26T09:17:53.073Z,8.60
2023-03-26T09:21:03.522Z,9.60
2023-03-26T09:24:24.227Z,10.70
2023-03-26T09:27:18.619Z,7.10
2023-03-26T09:29:57.142Z,8.40
2023-03-26T09:32:50.307Z,10.70
2023-03-26T09:35:35.012Z,8.60
2023-03-26T09:38:18.391Z,9.60
2023-03-26T09:43:34.398Z,9.60
2023-03-26T09:47:23.858Z,8.40
2023-03-26T09:50:17.469Z,8.40
2023-03-26T09:52:59.557Z,14.70
2023-03-26T09:56:02.648Z,12.60
2023-03-26T09:58:52.434Z,8.70
2023-03-26T10:01:51.017Z,15.60
2023-03-26T10:05:01.436Z,10.70
2023-03-26T10:07:52.594Z,12.50
2023-03-26T10:10:44.830Z,12.10
2023-03-26T10:13:24.272Z,6.90
2023-03-26T10:16:31.981Z,8.30
2023-03-26T10:19:15.093Z,8.10
2023-03-26T10:22:17.991Z,12.40
2023-03-26T10:25:27.550Z,9.30
2023-03-26T10:28:14.336Z,8.80
2023-03-26T10:31:06.456Z,10.30
2023-03-26T10:34:03.526Z,8.00
2023-03-26T10:36:43.181Z,8.00
2023-03-26T10:39:38.980Z,8.40
2023-03-26T10:42:28.154Z,7.90
2023-03-26T10:45:07.330Z,8.40
2023-03-26T10:48:02.451Z,10.40
2023-03-26T10:50:54.686Z,7.30
2023-03-26T10:53:33.761Z,8.00
2023-03-26T10:56:20.579Z,6.50
2023-03-26T10:58:50.154Z,6.30
2023-03-26T11:01:31.829Z,8.00
2023-03-26T11:04:15.716Z,7.80
2023-03-26T11:06:47.473Z,5.80
2023-03-26T11:12:26.482Z,6.10
2023-03-26T11:14:56.751Z,6.60
2023-03-26T11:17:40.353Z,6.50
2023-03-26T11:20:21.159Z,6.50
2023-03-26T11:23:13.601Z,5.30
2023-03-26T11:26:08.716Z,8.40
2023-03-26T11:29:30.999Z,5.90
2023-03-26T11:32:10.910Z,7.50
2023-03-26T11:35:04.573Z,3.80
2023-03-26T11:37:53.951Z,4.00
2023-03-26T11:40:42.245Z,7.30
2023-03-26T11:43:21.510Z,4.20
2023-03-26T11:45:52.739Z,4.60
2023-03-26T11:48:42.145Z,4.60
2023-03-26T11:51:18.181Z,4.70
2023-03-26T11:53:47.407Z,7.40
2023-03-26T11:56:28.375Z,4.50
2023-03-26T11:59:14.874Z,5.00
2023-03-26T12:02:00.368Z,5.40
2023-03-26T12:04:41.226Z,8.00
2023-03-26T12:07:24.023Z,6.40
2023-03-26T12:10:18.091Z,5.20
2023-03-26T12:12:52.296Z,4.40
2023-03-26T12:15:21.233Z,4.10
2023-03-26T12:17:56.593Z,4.70
2023-03-26T12:20:27.134Z,3.40
2023-03-26T12:22:59.757Z,4.90
2023-03-26T12:25:33.705Z,3.20
2023-03-26T12:28:14.265Z,4.80
2023-03-26T12:30:58.173Z,4.50
2023-03-26T12:33:29.029Z,7.60
2023-03-26T12:36:00.899Z,2.70
2023-03-26T12:38:35.929Z,5.20
2023-03-26T12:41:06.157Z,4.70
2023-03-26T12:44:54.488Z,4.30
2023-03-26T12:49:25.102Z,3.10
2023-03-26T12:52:40.755Z,4.60
2023-03-26T12:55:30.940Z,3.70
2023-03-26T12:58:18.562Z,4.40
2023-03-26T13:01:02.648Z,3.50
2023-03-26T13:04:02.020Z,3.00
2023-03-26T13:06:59.564Z,3.60
2023-03-26T13:09:45.475Z,2.40
2023-03-26T13:12:17.846Z,3.60
2023-03-26T13:18:08.601Z,3.00
2023-03-26T13:21:09.202Z,1.90
2023-03-26T13:23:45.060Z,3.00
2023-03-26T13:26:33.416Z,1.60
2023-03-26T13:29:22.222Z,3.10
2023-03-26T13:32:20.575Z,3.40
2023-03-26T13:35:03.171Z,2.70
2023-03-26T13:37:35.330Z,2.60
2023-03-26T13:40:15.383Z,2.30
2023-03-26T13:43:01.286Z,2.70
2023-03-26T13:45:57.243Z,3.00
2023-03-26T13:48:40.122Z,2.60
2023-03-26T13:51:14.028Z,2.80
2023-03-26T13:54:32.482Z,4.20
2023-03-26T13:57:25.131Z,4.10
2023-03-26T14:00:15.269Z,3.10
2023-03-26T14:02:44.475Z,2.90
2023-03-26T14:05:27.776Z,3.90
2023-03-26T14:08:24.514Z,4.10
2023-03-26T14:11:03.555Z,3.50
2023-03-26T14:13:36.487Z,2.50
2023-03-26T14:16:17.242Z,5.60
2023-03-26T14:19:09.122Z,2.80
2023-03-26T14:22:13.734Z,3.10
2023-03-26T14:25:03.836Z,6.20
2023-03-26T14:28:04.459Z,4.40
2023-03-26T14:30:56.878Z,4.90
2023-03-26T14:34:01.529Z,4.10
2023-03-26T14:39:32.691Z,3.30
2023-03-26T14:42:25.032Z,4.70
2023-03-26T14:45:11.637Z,3.90
2023-03-26T14:47:49.865Z,3.40
2023-03-26T14:50:47.012Z,4.00
2023-03-26T14:53:21.474Z,3.40
2023-03-26T14:55:54.518Z,5.10
2023-03-26T14:58:45.220Z,10.20
2023-03-26T15:01:23.073Z,5.90
2023-03-26T15:04:26.429Z,4.00
2023-03-26T15:07:20.873Z,7.70
2023-03-26T15:10:12.207Z,2.90
2023-03-26T15:13:18.598Z,3.70
2023-03-26T15:16:27.494Z,2.90
2023-03-26T15:19:20.122Z,1.90
2023-03-26T15:21:55.323Z,2.30
2023-03-26T15:24:27.587Z,3.90
2023-03-26T15:27:04.676Z,4.30
2023-03-26T15:30:00.196Z,5.20
2023-03-26T15:32:33.434Z,3.20
2023-03-26T15:35:06.187Z,5.60
2023-03-26T15:37:35.354Z,4.80
2023-03-26T15:40:19.152Z,10.30
2023-03-26T15:43:03.573Z,10.50
2023-03-26T15:45:42.306Z,10.90
2023-03-26T15:48:13.475Z,8.80
2023-03-26T15:51:16.776Z,9.10
2023-03-26T15:53:54.527Z,15.80
2023-03-26T15:56:36.125Z,13.10
2023-03-26T15:59:05.731Z,16.50
2023-03-26T16:01:49.677Z,18.80
2023-03-26T16:05:19.438Z,15.30
2023-03-26T16:08:15.037Z,14.00
2023-03-26T16:10:58.785Z,14.20
2023-03-26T16:13:37.911Z,16.90
2023-03-26T16:16:14.957Z,21.70
2023-03-26T16:18:48.596Z,11.90
2023-03-26T16:21:31.994Z,16.90
2023-03-26T16:24:05.882Z,25.10
2023-03-26T16:26:44.177Z,27.30
2023-03-26T16:29:27.107Z,28.40
2023-03-26T16:32:15.078Z,20.10
2023-03-26T16:37:38.598Z,18.60
2023-03-26T16:40:20.965Z,27.10
2023-03-26T16:43:17.064Z,32.10
2023-03-26T16:45:56.500Z,31.60
2023-03-26T16:49:11.884Z,24.00
2023-03-26T16:54:47.352Z,14.00
2023-03-26T16:57:30.065Z,17.30
2023-03-26T17:00:35.007Z,23.00
2023-03-26T17:03:39.309Z,14.90
2023-03-26T17:06:19.170Z,15.50
2023-03-26T17:09:53.097Z,12.50
2023-03-26T17:12:54.035Z,16.60
2023-03-26T17:16:04.092Z,12.40
2023-03-26T17:18:39.035Z,28.30
2023-03-26T17:21:18.503Z,32.10
2023-03-26T17:24:04.368Z,20.90
2023-03-26T17:26:39.076Z,18.80
2023-03-26T17:29:10.217Z,12.50
2023-03-26T17:31:45.417Z,15.90
2023-03-26T17:34:49.475Z,15.40
2023-03-26T17:37:24.312Z,29.20
2023-03-26T17:40:01.791Z,22.00
2023-03-26T17:42:36.133Z,21.40
2023-03-26T17:45:25.917Z,21.50
2023-03-26T17:48:02.652Z,17.60
2023-03-26T17:50:54.390Z,16.20
2023-03-26T17:53:29.235Z,18.40
2023-03-26T17:56:03.928Z,34.80
2023-03-26T17:58:36.745Z,23.20
2023-03-26T18:01:24.302Z,18.40
2023-03-26T18:03:56.416Z,19.90
2023-03-26T18:06:43.764Z,21.90
2023-03-26T18:09:34.672Z,35.60
2023-03-26T18:12:24.973Z,24.70
2023-03-26T18:15:31.813Z,46.50
2023-03-26T18:18:18.286Z,56.20
2023-03-26T18:20:48.163Z,71.80
2023-03-26T18:23:29.035Z,42.30
2023-03-26T18:26:22.406Z,45.40
2023-03-26T18:28:54.046Z,38.90
2023-03-26T18:31:28.252Z,33.60
2023-03-26T18:34:06.781Z,29.30
2023-03-26T18:36:35.168Z,35.90
2023-03-26T18:39:04.479Z,38.70
2023-03-26T18:41:42.222Z,29.70
2023-03-26T18:44:16.170Z,18.00
2023-03-26T18:46:45.989Z,27.20
2023-03-26T18:49:15.911Z,25.00
2023-03-26T18:51:56.100Z,13.70
2023-03-26T18:54:25.668Z,13.00
2023-03-26T18:56:55.503Z,15.30
2023-03-26T18:59:32.705Z,11.40
2023-03-26T19:02:04.651Z,23.00
2023-03-26T19:04:34.246Z,31.60
2023-03-26T19:07:04.282Z,30.40
2023-03-26T19:09:33.760Z,49.10
2023-03-26T19:12:08.585Z,33.30
2023-03-26T19:14:57.757Z,56.50
2023-03-26T19:17:34.969Z,48.80
2023-03-26T19:20:10.040Z,18.80
2023-03-26T19:22:41.705Z,29.60
2023-03-26T19:27:38.698Z,26.60
2023-03-26T19:30:14.376Z,19.80
2023-03-26T19:32:44.095Z,21.30
2023-03-26T19:35:20.986Z,19.90
2023-03-26T19:37:50.957Z,16.80
2023-03-26T19:40:28.011Z,11.20
2023-03-26T19:42:59.492Z,11.30
2023-03-26T19:45:27.869Z,12.20
2023-03-26T19:48:11.660Z,15.80
2023-03-26T19:50:53.127Z,11.60
2023-03-26T19:53:25.754Z,8.50
2023-03-26T19:55:58.940Z,9.80
2023-03-26T19:58:27.494Z,8.40
2023-03-26T20:00:59.605Z,8.10
2023-03-26T20:03:43.373Z,9.60
2023-03-26T20:06:13.017Z,7.50
2023-03-26T20:08:46.782Z,10.20
2023-03-26T20:11:17.351Z,6.50
2023-03-26T20:13:46.624Z,10.10
2023-03-26T20:16:24.952Z,9.90
2023-03-26T20:18:57.968Z,8.80
2023-03-26T20:21:29.666Z,8.50
2023-03-26T20:23:59.375Z,7.40
2023-03-26T20:26:28.073Z,7.60
2023-03-26T20:28:56.545Z,7.50
2023-03-26T20:31:26.813Z,8.90
2023-03-26T20:33:55.243Z,8.30
2023-03-26T20:36:34.147Z,7.60
2023-03-26T20:39:08.196Z,8.80
2023-03-26T20:41:41.902Z,9.00
2023-03-26T20:44:15.808Z,9.70
2023-03-26T20:46:44.328Z,8.10
2023-03-26T20:49:13.265Z,10.30
2023-03-26T20:51:45.950Z,10.70
2023-03-26T20:54:22.209Z,10.00
2023-03-26T20:56:51.259Z,10.00
2023-03-26T20:59:22.604Z,9.40
2023-03-26T21:04:20.761Z,10.40
2023-03-26T21:06:49.122Z,13.60
2023-03-26T21:09:19.239Z,8.00
2023-03-26T21:11:52.455Z,8.50
2023-03-26T21:14:25.827Z,10.60
2023-03-26T21:16:55.797Z,10.90
2023-03-26T21:19:24.535Z,10.50
2023-03-26T21:21:59.376Z,10.50
2023-03-26T21:24:34.984Z,11.90
2023-03-26T21:27:29.509Z,11.20
2023-03-26T21:29:58.431Z,12.00
2023-03-26T21:32:27.479Z,8.60
2023-03-26T21:34:59.660Z,12.20
2023-03-26T21:37:29.168Z,10.50
2023-03-26T21:40:00.155Z,7.90
2023-03-26T21:42:29.559Z,13.00
2023-03-26T21:44:58.223Z,8.90
2023-03-26T21:47:28.594Z,13.00
2023-03-26T21:49:58.131Z,11.40
2023-03-26T21:52:26.817Z,11.40
2023-03-26T21:55:03.827Z,9.90
2023-03-26T21:57:48.469Z,7.50
2023-03-26T22:02:23.292Z,9.10
2023-03-26T22:04:56.395Z,7.20
2023-03-26T22:07:52.756Z,7.20
2023-03-26T22:10:21.770Z,6.80
2023-03-26T22:12:54.200Z,6.90
2023-03-26T22:15:22.782Z,5.90
2023-03-26T22:17:54.374Z,5.90
2023-03-26T22:20:25.440Z,8.80
2023-03-26T22:22:55.416Z,7.80
2023-03-26T22:25:23.893Z,5.80
2023-03-26T22:27:57.785Z,7.20
2023-03-26T22:30:27.408Z,5.60
2023-03-26T22:32:57.144Z,8.20
2023-03-26T22:35:26.425Z,9.10
2023-03-26T22:38:00.360Z,6.30
2023-03-26T22:40:30.232Z,7.50
2023-03-26T22:42:58.664Z,5.80
2023-03-26T22:45:30.377Z,5.70
2023-03-26T22:48:03.003Z,6.30
2023-03-26T22:50:33.164Z,6.00
2023-03-26T22:53:05.239Z,6.70
2023-03-26T22:55:33.918Z,5.40
2023-03-26T22:58:06.193Z,5.80
2023-03-26T23:00:37.035Z,8.10
2023-03-26T23:03:06.569Z,6.40
2023-03-26T23:05:39.016Z,5.70
2023-03-26T23:08:10.379Z,7.30
2023-03-26T23:10:43.111Z,5.60
2023-03-26T23:13:11.924Z,6.20
2023-03-26T23:15:41.535Z,7.30
2023-03-26T23:18:10.272Z,7.00
2023-03-26T23:20:40.144Z,5.10
2023-03-26T23:23:08.638Z,5.90
2023-03-26T23:25:41.094Z,8.10
2023-03-26T23:28:10.508Z,10.90
2023-03-26T23:30:38.778Z,10.60
2023-03-26T23:33:09.242Z,7.30
2023-03-26T23:35:37.967Z,7.80
2023-03-26T23:38:08.595Z,8.00
2023-03-26T23:40:38.234Z,6.60
2023-03-26T23:43:07.031Z,9.50
2023-03-26T23:45:35.215Z,8.50
2023-03-26T23:48:05.438Z,9.30
2023-03-26T23:50:33.699Z,9.70
2023-03-26T23:53:02.690Z,8.40
2023-03-26T23:55:30.972Z,7.30
2023-03-26T23:58:00.776Z,7.50
